sensor_id;sensor_type;location;lat;lon;timestamp;pressure;altitude;pressure_sealevel;temperature;humidity
40117;BME280;25829;50.228;18.936;2023-04-30T00:00:17;98457.22;;;10.80;74.15
40117;BME280;25829;50.228;18.936;2023-04-30T00:03:18;98462.69;;;10.79;74.10
40117;BME280;25829;50.228;18.936;2023-04-30T00:06:19;98461.50;;;10.75;73.80
40117;BME280;25829;50.228;18.936;2023-04-30T00:09:20;98457.81;;;10.76;74.21
40117;BME280;25829;50.228;18.936;2023-04-30T00:12:21;98466.53;;;10.76;73.81
40117;BME280;25829;50.228;18.936;2023-04-30T00:15:22;98459.88;;;10.67;73.77
40117;BME280;25829;50.228;18.936;2023-04-30T00:18:23;98463.34;;;10.61;74.04
40117;BME280;25829;50.228;18.936;2023-04-30T00:21:27;98460.06;;;10.59;74.10
40117;BME280;25829;50.228;18.936;2023-04-30T00:24:28;98465.78;;;10.56;74.25
40117;BME280;25829;50.228;18.936;2023-04-30T00:27:32;98467.81;;;10.54;74.21
40117;BME280;25829;50.228;18.936;2023-04-30T00:30:33;98475.09;;;10.52;74.42
40117;BME280;25829;50.228;18.936;2023-04-30T00:33:34;98475.34;;;10.50;74.35
40117;BME280;25829;50.228;18.936;2023-04-30T00:36:35;98482.63;;;10.48;74.19
40117;BME280;25829;50.228;18.936;2023-04-30T00:39:37;98477.97;;;10.50;74.27
40117;BME280;25829;50.228;18.936;2023-04-30T00:42:38;98477.75;;;10.52;74.20
40117;BME280;25829;50.228;18.936;2023-04-30T00:45:42;98471.88;;;10.50;74.12
40117;BME280;25829;50.228;18.936;2023-04-30T00:48:43;98475.09;;;10.52;74.41
40117;BME280;25829;50.228;18.936;2023-04-30T00:51:45;98480.38;;;10.52;74.28
40117;BME280;25829;50.228;18.936;2023-04-30T00:54:48;98478.78;;;10.51;74.16
40117;BME280;25829;50.228;18.936;2023-04-30T00:57:50;98481.63;;;10.49;74.28
40117;BME280;25829;50.228;18.936;2023-04-30T01:00:52;98480.59;;;10.50;74.18
40117;BME280;25829;50.228;18.936;2023-04-30T01:03:59;98485.06;;;10.50;74.05
40117;BME280;25829;50.228;18.936;2023-04-30T01:07:01;98485.47;;;10.47;74.36
40117;BME280;25829;50.228;18.936;2023-04-30T01:10:03;98476.75;;;10.46;74.43
40117;BME280;25829;50.228;18.936;2023-04-30T01:13:39;98483.66;;;10.47;74.41
40117;BME280;25829;50.228;18.936;2023-04-30T01:17:12;98485.66;;;10.45;74.57
40117;BME280;25829;50.228;18.936;2023-04-30T01:20:17;98488.13;;;10.47;74.30
40117;BME280;25829;50.228;18.936;2023-04-30T01:26:58;98490.75;;;10.47;74.33
40117;BME280;25829;50.228;18.936;2023-04-30T01:30:02;98500.91;;;10.43;74.17
40117;BME280;25829;50.228;18.936;2023-04-30T01:33:04;98502.75;;;10.43;74.14
40117;BME280;25829;50.228;18.936;2023-04-30T01:36:18;98504.56;;;10.42;74.01
40117;BME280;25829;50.228;18.936;2023-04-30T01:43:08;98499.31;;;10.35;74.26
40117;BME280;25829;50.228;18.936;2023-04-30T01:46:30;98502.34;;;10.32;74.13
40117;BME280;25829;50.228;18.936;2023-04-30T01:50:12;98503.78;;;10.35;74.43
40117;BME280;25829;50.228;18.936;2023-04-30T01:53:30;98506.59;;;10.33;74.53
40117;BME280;25829;50.228;18.936;2023-04-30T01:56:43;98501.13;;;10.35;74.25
40117;BME280;25829;50.228;18.936;2023-04-30T01:59:45;98506.59;;;10.33;74.04
40117;BME280;25829;50.228;18.936;2023-04-30T02:02:47;98514.72;;;10.32;74.13
40117;BME280;25829;50.228;18.936;2023-04-30T02:05:54;98510.03;;;10.27;74.11
40117;BME280;25829;50.228;18.936;2023-04-30T02:08:56;98508.03;;;10.29;74.25
40117;BME280;25829;50.228;18.936;2023-04-30T02:12:04;98511.06;;;10.33;73.89
40117;BME280;25829;50.228;18.936;2023-04-30T02:15:06;98506.41;;;10.28;73.94
40117;BME280;25829;50.228;18.936;2023-04-30T02:18:13;98517.56;;;10.30;73.82
40117;BME280;25829;50.228;18.936;2023-04-30T02:21:14;98518.97;;;10.33;73.90
40117;BME280;25829;50.228;18.936;2023-04-30T02:24:15;98519.59;;;10.35;73.98
40117;BME280;25829;50.228;18.936;2023-04-30T02:27:18;98521.41;;;10.34;73.83
40117;BME280;25829;50.228;18.936;2023-04-30T02:30:24;98527.50;;;10.35;73.92
40117;BME280;25829;50.228;18.936;2023-04-30T02:33:25;98523.44;;;10.26;74.03
40117;BME280;25829;50.228;18.936;2023-04-30T02:36:30;98534.00;;;10.19;74.51
40117;BME280;25829;50.228;18.936;2023-04-30T02:39:35;98536.84;;;10.11;75.59
40117;BME280;25829;50.228;18.936;2023-04-30T02:42:38;98535.63;;;9.94;75.57
40117;BME280;25829;50.228;18.936;2023-04-30T02:45:39;98548.75;;;9.74;75.41
40117;BME280;25829;50.228;18.936;2023-04-30T02:48:40;98542.22;;;9.56;76.04
40117;BME280;25829;50.228;18.936;2023-04-30T02:51:41;98554.75;;;9.48;75.71
40117;BME280;25829;50.228;18.936;2023-04-30T02:54:43;98551.25;;;9.34;76.27
40117;BME280;25829;50.228;18.936;2023-04-30T02:57:44;98565.38;;;9.26;76.19
40117;BME280;25829;50.228;18.936;2023-04-30T03:00:45;98568.19;;;9.18;75.99
40117;BME280;25829;50.228;18.936;2023-04-30T03:03:46;98580.53;;;9.18;76.26
40117;BME280;25829;50.228;18.936;2023-04-30T03:06:47;98586.75;;;9.10;75.74
40117;BME280;25829;50.228;18.936;2023-04-30T03:09:47;98594.78;;;8.95;75.49
40117;BME280;25829;50.228;18.936;2023-04-30T03:12:48;98597.16;;;8.83;75.22
40117;BME280;25829;50.228;18.936;2023-04-30T03:16:00;98605.56;;;8.72;74.64
40117;BME280;25829;50.228;18.936;2023-04-30T03:19:01;98612.34;;;8.60;73.80
40117;BME280;25829;50.228;18.936;2023-04-30T03:22:02;98609.47;;;8.55;73.99
40117;BME280;25829;50.228;18.936;2023-04-30T03:25:03;98620.41;;;8.52;73.44
40117;BME280;25829;50.228;18.936;2023-04-30T03:28:04;98636.34;;;8.50;73.24
40117;BME280;25829;50.228;18.936;2023-04-30T03:31:05;98637.66;;;8.39;72.65
40117;BME280;25829;50.228;18.936;2023-04-30T03:34:06;98636.81;;;8.32;72.96
40117;BME280;25829;50.228;18.936;2023-04-30T03:37:09;98639.00;;;8.29;72.81
40117;BME280;25829;50.228;18.936;2023-04-30T03:40:10;98642.19;;;8.24;73.03
40117;BME280;25829;50.228;18.936;2023-04-30T03:43:11;98648.38;;;8.16;71.70
40117;BME280;25829;50.228;18.936;2023-04-30T03:46:12;98647.13;;;8.12;72.11
40117;BME280;25829;50.228;18.936;2023-04-30T03:49:13;98661.72;;;8.15;72.31
40117;BME280;25829;50.228;18.936;2023-04-30T03:52:14;98671.22;;;8.16;72.21
40117;BME280;25829;50.228;18.936;2023-04-30T03:55:16;98667.34;;;8.12;72.17
40117;BME280;25829;50.228;18.936;2023-04-30T03:58:18;98664.34;;;8.15;72.19
40117;BME280;25829;50.228;18.936;2023-04-30T04:01:19;98667.97;;;8.14;72.10
40117;BME280;25829;50.228;18.936;2023-04-30T04:04:21;98676.47;;;8.16;72.06
40117;BME280;25829;50.228;18.936;2023-04-30T04:07:24;98680.97;;;8.22;72.24
40117;BME280;25829;50.228;18.936;2023-04-30T04:10:27;98679.00;;;8.24;72.55
40117;BME280;25829;50.228;18.936;2023-04-30T04:13:29;98681.19;;;8.20;72.40
40117;BME280;25829;50.228;18.936;2023-04-30T04:16:31;98689.22;;;8.19;72.74
40117;BME280;25829;50.228;18.936;2023-04-30T04:19:32;98691.13;;;8.25;72.33
40117;BME280;25829;50.228;18.936;2023-04-30T04:22:34;98692.75;;;8.26;72.59
40117;BME280;25829;50.228;18.936;2023-04-30T04:25:36;98699.00;;;8.25;72.19
40117;BME280;25829;50.228;18.936;2023-04-30T04:28:38;98707.91;;;8.24;72.55
40117;BME280;25829;50.228;18.936;2023-04-30T04:31:41;98697.38;;;8.24;72.33
40117;BME280;25829;50.228;18.936;2023-04-30T04:34:42;98711.16;;;8.26;72.52
40117;BME280;25829;50.228;18.936;2023-04-30T04:37:44;98712.31;;;8.24;72.64
40117;BME280;25829;50.228;18.936;2023-04-30T04:40:52;98720.84;;;8.26;72.91
40117;BME280;25829;50.228;18.936;2023-04-30T04:43:54;98724.84;;;8.21;73.10
40117;BME280;25829;50.228;18.936;2023-04-30T04:46:56;98726.31;;;8.24;72.72
40117;BME280;25829;50.228;18.936;2023-04-30T04:49:58;98731.63;;;8.31;72.63
40117;BME280;25829;50.228;18.936;2023-04-30T04:52:59;98733.06;;;8.33;73.04
40117;BME280;25829;50.228;18.936;2023-04-30T04:56:03;98732.69;;;8.36;72.65
40117;BME280;25829;50.228;18.936;2023-04-30T04:59:12;98738.75;;;8.37;72.45
40117;BME280;25829;50.228;18.936;2023-04-30T05:02:13;98742.19;;;8.37;72.37
40117;BME280;25829;50.228;18.936;2023-04-30T05:05:14;98745.47;;;8.39;72.62
40117;BME280;25829;50.228;18.936;2023-04-30T05:08:15;98760.66;;;8.44;72.59
40117;BME280;25829;50.228;18.936;2023-04-30T05:11:16;98764.66;;;8.40;72.30
40117;BME280;25829;50.228;18.936;2023-04-30T05:14:17;98766.75;;;8.44;72.47
40117;BME280;25829;50.228;18.936;2023-04-30T05:17:20;98772.84;;;8.45;71.96
40117;BME280;25829;50.228;18.936;2023-04-30T05:20:21;98769.19;;;8.46;72.15
40117;BME280;25829;50.228;18.936;2023-04-30T05:23:22;98779.34;;;8.49;71.83
40117;BME280;25829;50.228;18.936;2023-04-30T05:26:23;98791.94;;;8.54;72.42
40117;BME280;25829;50.228;18.936;2023-04-30T05:29:26;98775.97;;;8.55;72.10
40117;BME280;25829;50.228;18.936;2023-04-30T05:32:27;98790.75;;;8.56;71.78
40117;BME280;25829;50.228;18.936;2023-04-30T05:35:28;98788.13;;;8.56;71.51
40117;BME280;25829;50.228;18.936;2023-04-30T05:38:30;98794.63;;;8.60;71.16
40117;BME280;25829;50.228;18.936;2023-04-30T05:41:31;98791.25;;;8.66;71.62
40117;BME280;25829;50.228;18.936;2023-04-30T05:44:32;98800.66;;;8.76;71.21
40117;BME280;25829;50.228;18.936;2023-04-30T05:47:33;98806.81;;;8.83;71.22
40117;BME280;25829;50.228;18.936;2023-04-30T05:50:33;98813.31;;;8.87;71.10
40117;BME280;25829;50.228;18.936;2023-04-30T05:53:34;98803.34;;;8.82;70.39
40117;BME280;25829;50.228;18.936;2023-04-30T05:56:35;98808.88;;;8.87;70.75
40117;BME280;25829;50.228;18.936;2023-04-30T05:59:36;98810.13;;;8.91;70.14
40117;BME280;25829;50.228;18.936;2023-04-30T06:02:37;98817.34;;;8.83;69.41
40117;BME280;25829;50.228;18.936;2023-04-30T06:05:41;98819.38;;;8.87;69.72
40117;BME280;25829;50.228;18.936;2023-04-30T06:08:42;98817.88;;;8.78;69.07
40117;BME280;25829;50.228;18.936;2023-04-30T06:11:44;98821.50;;;8.77;69.76
40117;BME280;25829;50.228;18.936;2023-04-30T06:14:50;98825.41;;;8.81;69.38
40117;BME280;25829;50.228;18.936;2023-04-30T06:17:51;98815.50;;;8.83;68.96
40117;BME280;25829;50.228;18.936;2023-04-30T06:20:52;98825.47;;;8.88;68.83
40117;BME280;25829;50.228;18.936;2023-04-30T06:23:53;98816.25;;;8.99;68.62
40117;BME280;25829;50.228;18.936;2023-04-30T06:26:54;98822.81;;;9.09;68.91
40117;BME280;25829;50.228;18.936;2023-04-30T06:29:55;98827.53;;;9.14;67.33
40117;BME280;25829;50.228;18.936;2023-04-30T06:32:56;98826.91;;;9.12;66.81
40117;BME280;25829;50.228;18.936;2023-04-30T06:35:57;98827.34;;;9.15;66.20
40117;BME280;25829;50.228;18.936;2023-04-30T06:38:58;98834.22;;;9.16;65.76
40117;BME280;25829;50.228;18.936;2023-04-30T06:41:58;98841.94;;;9.18;65.03
40117;BME280;25829;50.228;18.936;2023-04-30T06:45:14;98840.34;;;9.24;64.36
40117;BME280;25829;50.228;18.936;2023-04-30T06:48:18;98841.63;;;9.28;64.70
40117;BME280;25829;50.228;18.936;2023-04-30T06:51:19;98845.41;;;9.40;64.81
40117;BME280;25829;50.228;18.936;2023-04-30T06:54:20;98848.56;;;9.57;64.88
40117;BME280;25829;50.228;18.936;2023-04-30T06:57:22;98848.41;;;9.65;63.99
40117;BME280;25829;50.228;18.936;2023-04-30T07:00:24;98858.63;;;9.75;63.82
40117;BME280;25829;50.228;18.936;2023-04-30T07:03:26;98859.47;;;9.82;63.51
40117;BME280;25829;50.228;18.936;2023-04-30T07:06:27;98857.31;;;9.92;63.83
40117;BME280;25829;50.228;18.936;2023-04-30T07:09:29;98853.09;;;9.98;62.98
40117;BME280;25829;50.228;18.936;2023-04-30T07:12:33;98850.69;;;10.03;62.84
40117;BME280;25829;50.228;18.936;2023-04-30T07:15:40;98854.22;;;10.17;63.44
40117;BME280;25829;50.228;18.936;2023-04-30T07:18:56;98848.00;;;10.38;63.22
40117;BME280;25829;50.228;18.936;2023-04-30T07:25:15;98852.78;;;10.62;61.69
40117;BME280;25829;50.228;18.936;2023-04-30T07:28:23;98857.91;;;10.70;61.12
40117;BME280;25829;50.228;18.936;2023-04-30T07:31:30;98850.22;;;10.75;60.18
40117;BME280;25829;50.228;18.936;2023-04-30T07:34:37;98857.13;;;10.83;60.08
40117;BME280;25829;50.228;18.936;2023-04-30T07:37:40;98861.00;;;10.94;59.81
40117;BME280;25829;50.228;18.936;2023-04-30T07:40:43;98863.09;;;11.05;58.81
40117;BME280;25829;50.228;18.936;2023-04-30T07:43:44;98869.78;;;11.14;58.58
40117;BME280;25829;50.228;18.936;2023-04-30T07:46:45;98856.41;;;11.29;58.34
40117;BME280;25829;50.228;18.936;2023-04-30T07:49:46;98865.97;;;11.50;58.76
40117;BME280;25829;50.228;18.936;2023-04-30T07:52:50;98869.41;;;11.57;57.18
40117;BME280;25829;50.228;18.936;2023-04-30T07:55:57;98882.19;;;11.73;57.34
40117;BME280;25829;50.228;18.936;2023-04-30T07:58:58;98876.50;;;12.03;56.64
40117;BME280;25829;50.228;18.936;2023-04-30T08:02:06;98881.34;;;12.19;56.47
40117;BME280;25829;50.228;18.936;2023-04-30T08:05:07;98881.88;;;12.48;55.90
40117;BME280;25829;50.228;18.936;2023-04-30T08:08:30;98888.44;;;12.84;54.98
40117;BME280;25829;50.228;18.936;2023-04-30T08:11:34;98893.31;;;13.25;53.90
40117;BME280;25829;50.228;18.936;2023-04-30T08:14:35;98887.75;;;13.83;54.33
40117;BME280;25829;50.228;18.936;2023-04-30T08:17:36;98893.88;;;14.46;52.13
40117;BME280;25829;50.228;18.936;2023-04-30T08:20:38;98890.69;;;15.04;51.47
40117;BME280;25829;50.228;18.936;2023-04-30T08:23:39;98884.25;;;15.42;50.99
40117;BME280;25829;50.228;18.936;2023-04-30T08:26:40;98893.47;;;15.27;50.33
40117;BME280;25829;50.228;18.936;2023-04-30T08:29:41;98895.59;;;15.19;51.51
40117;BME280;25829;50.228;18.936;2023-04-30T08:32:42;98897.41;;;15.06;50.39
40117;BME280;25829;50.228;18.936;2023-04-30T08:35:45;98895.34;;;14.78;49.80
40117;BME280;25829;50.228;18.936;2023-04-30T08:38:56;98889.88;;;14.73;49.58
40117;BME280;25829;50.228;18.936;2023-04-30T08:42:00;98895.47;;;15.14;47.95
40117;BME280;25829;50.228;18.936;2023-04-30T08:45:08;98893.88;;;15.66;48.28
40117;BME280;25829;50.228;18.936;2023-04-30T08:48:23;98888.78;;;16.35;46.88
40117;BME280;25829;50.228;18.936;2023-04-30T08:51:25;98888.22;;;17.02;44.20
40117;BME280;25829;50.228;18.936;2023-04-30T08:54:34;98886.84;;;17.79;46.44
40117;BME280;25829;50.228;18.936;2023-04-30T08:57:40;98888.34;;;18.25;45.57
40117;BME280;25829;50.228;18.936;2023-04-30T09:00:41;98886.31;;;18.81;44.71
40117;BME280;25829;50.228;18.936;2023-04-30T09:03:48;98884.13;;;19.27;41.92
40117;BME280;25829;50.228;18.936;2023-04-30T09:06:52;98888.72;;;19.64;43.53
40117;BME280;25829;50.228;18.936;2023-04-30T09:10:02;98887.56;;;20.29;44.44
40117;BME280;25829;50.228;18.936;2023-04-30T09:13:06;98893.16;;;20.86;43.47
40117;BME280;25829;50.228;18.936;2023-04-30T09:16:27;98887.81;;;21.11;40.68
40117;BME280;25829;50.228;18.936;2023-04-30T09:23:58;98892.16;;;21.79;40.61
40117;BME280;25829;50.228;18.936;2023-04-30T09:27:16;98892.69;;;21.86;39.10
40117;BME280;25829;50.228;18.936;2023-04-30T09:34:15;98889.50;;;21.38;40.40
40117;BME280;25829;50.228;18.936;2023-04-30T09:40:37;98901.84;;;21.34;41.28
40117;BME280;25829;50.228;18.936;2023-04-30T09:43:46;98904.28;;;21.61;39.69
40117;BME280;25829;50.228;18.936;2023-04-30T09:46:50;98900.72;;;21.09;39.52
40117;BME280;25829;50.228;18.936;2023-04-30T09:50:12;98881.47;;;20.44;37.73
40117;BME280;25829;50.228;18.936;2023-04-30T09:53:25;98896.63;;;20.23;40.54
40117;BME280;25829;50.228;18.936;2023-04-30T09:56:31;98892.63;;;20.31;40.55
40117;BME280;25829;50.228;18.936;2023-04-30T09:59:35;98876.41;;;20.00;39.69
40117;BME280;25829;50.228;18.936;2023-04-30T10:06:33;98892.97;;;19.28;40.65
40117;BME280;25829;50.228;18.936;2023-04-30T10:09:39;98888.38;;;18.96;40.45
40117;BME280;25829;50.228;18.936;2023-04-30T10:16:50;98885.53;;;18.37;39.29
40117;BME280;25829;50.228;18.936;2023-04-30T10:19:59;98884.47;;;17.99;40.91
40117;BME280;25829;50.228;18.936;2023-04-30T10:23:03;98871.72;;;17.67;41.14
40117;BME280;25829;50.228;18.936;2023-04-30T10:26:04;98872.22;;;17.48;41.13
40117;BME280;25829;50.228;18.936;2023-04-30T10:29:08;98875.66;;;17.14;41.35
40117;BME280;25829;50.228;18.936;2023-04-30T10:32:11;98876.88;;;16.95;42.00
40117;BME280;25829;50.228;18.936;2023-04-30T10:35:32;98867.50;;;16.92;41.15
40117;BME280;25829;50.228;18.936;2023-04-30T10:38:36;98866.91;;;16.73;41.29
40117;BME280;25829;50.228;18.936;2023-04-30T10:41:38;98877.63;;;16.50;41.71
40117;BME280;25829;50.228;18.936;2023-04-30T10:44:39;98864.69;;;16.30;41.30
40117;BME280;25829;50.228;18.936;2023-04-30T10:47:43;98869.69;;;16.15;41.48
40117;BME280;25829;50.228;18.936;2023-04-30T10:50:50;98864.03;;;15.88;39.91
40117;BME280;25829;50.228;18.936;2023-04-30T10:53:54;98866.44;;;15.54;39.88
40117;BME280;25829;50.228;18.936;2023-04-30T11:00:17;98867.03;;;15.14;40.52
40117;BME280;25829;50.228;18.936;2023-04-30T11:03:21;98862.97;;;15.00;40.66
40117;BME280;25829;50.228;18.936;2023-04-30T11:06:22;98856.69;;;14.94;39.53
40117;BME280;25829;50.228;18.936;2023-04-30T11:12:39;98865.91;;;14.92;40.66
40117;BME280;25829;50.228;18.936;2023-04-30T11:15:44;98868.78;;;14.78;40.17
40117;BME280;25829;50.228;18.936;2023-04-30T11:18:45;98860.19;;;14.65;40.65
40117;BME280;25829;50.228;18.936;2023-04-30T11:25:12;98867.69;;;14.49;40.42
40117;BME280;25829;50.228;18.936;2023-04-30T11:28:19;98867.72;;;14.31;40.50
40117;BME280;25829;50.228;18.936;2023-04-30T11:31:33;98876.13;;;14.28;40.25
40117;BME280;25829;50.228;18.936;2023-04-30T11:34:35;98867.28;;;14.34;41.45
40117;BME280;25829;50.228;18.936;2023-04-30T11:37:42;98867.22;;;14.41;41.05
40117;BME280;25829;50.228;18.936;2023-04-30T11:40:44;98874.41;;;14.52;41.39
40117;BME280;25829;50.228;18.936;2023-04-30T11:43:44;98881.84;;;14.61;41.47
40117;BME280;25829;50.228;18.936;2023-04-30T11:46:45;98881.41;;;14.65;40.45
40117;BME280;25829;50.228;18.936;2023-04-30T11:49:49;98867.19;;;14.59;41.00
40117;BME280;25829;50.228;18.936;2023-04-30T11:52:52;98863.72;;;14.58;40.46
40117;BME280;25829;50.228;18.936;2023-04-30T11:55:53;98877.34;;;14.62;40.49
40117;BME280;25829;50.228;18.936;2023-04-30T11:58:56;98869.09;;;14.52;38.61
40117;BME280;25829;50.228;18.936;2023-04-30T12:01:57;98883.22;;;14.34;39.51
40117;BME280;25829;50.228;18.936;2023-04-30T12:04:58;98874.81;;;14.37;39.61
40117;BME280;25829;50.228;18.936;2023-04-30T12:08:04;98883.88;;;14.48;39.69
40117;BME280;25829;50.228;18.936;2023-04-30T12:11:23;98869.31;;;14.50;38.07
40117;BME280;25829;50.228;18.936;2023-04-30T12:17:49;98867.78;;;14.43;39.28
40117;BME280;25829;50.228;18.936;2023-04-30T12:20:50;98872.50;;;14.41;40.13
40117;BME280;25829;50.228;18.936;2023-04-30T12:23:51;98871.47;;;14.42;40.31
40117;BME280;25829;50.228;18.936;2023-04-30T12:26:53;98861.59;;;14.49;40.31
40117;BME280;25829;50.228;18.936;2023-04-30T12:29:54;98859.28;;;14.52;40.14
40117;BME280;25829;50.228;18.936;2023-04-30T12:33:30;98852.72;;;14.55;38.91
40117;BME280;25829;50.228;18.936;2023-04-30T12:36:32;98853.47;;;14.62;39.50
40117;BME280;25829;50.228;18.936;2023-04-30T12:39:36;98857.53;;;14.65;39.82
40117;BME280;25829;50.228;18.936;2023-04-30T12:43:06;98861.50;;;14.55;38.57
40117;BME280;25829;50.228;18.936;2023-04-30T12:46:07;98850.88;;;14.55;39.90
40117;BME280;25829;50.228;18.936;2023-04-30T12:49:08;98846.03;;;14.52;38.78
40117;BME280;25829;50.228;18.936;2023-04-30T12:52:12;98840.59;;;14.47;39.25
40117;BME280;25829;50.228;18.936;2023-04-30T12:55:19;98847.94;;;14.45;39.79
40117;BME280;25829;50.228;18.936;2023-04-30T12:58:20;98837.44;;;14.50;40.59
40117;BME280;25829;50.228;18.936;2023-04-30T13:01:22;98846.16;;;14.57;39.72
40117;BME280;25829;50.228;18.936;2023-04-30T13:04:24;98844.31;;;14.58;39.85
40117;BME280;25829;50.228;18.936;2023-04-30T13:07:24;98838.94;;;14.65;39.92
40117;BME280;25829;50.228;18.936;2023-04-30T13:10:26;98837.81;;;14.72;39.80
40117;BME280;25829;50.228;18.936;2023-04-30T13:13:26;98829.03;;;14.72;39.71
40117;BME280;25829;50.228;18.936;2023-04-30T13:16:27;98833.50;;;14.71;39.88
40117;BME280;25829;50.228;18.936;2023-04-30T13:19:36;98825.06;;;14.63;37.70
40117;BME280;25829;50.228;18.936;2023-04-30T13:22:37;98835.75;;;14.56;38.60
40117;BME280;25829;50.228;18.936;2023-04-30T13:25:39;98830.44;;;14.56;39.41
40117;BME280;25829;50.228;18.936;2023-04-30T13:28:41;98822.84;;;14.59;39.10
40117;BME280;25829;50.228;18.936;2023-04-30T13:31:45;98828.97;;;14.60;39.19
40117;BME280;25829;50.228;18.936;2023-04-30T13:34:48;98823.81;;;14.65;39.40
40117;BME280;25829;50.228;18.936;2023-04-30T13:37:53;98837.66;;;14.67;37.91
40117;BME280;25829;50.228;18.936;2023-04-30T13:40:54;98829.31;;;14.64;38.08
40117;BME280;25829;50.228;18.936;2023-04-30T13:43:54;98828.16;;;14.59;37.80
40117;BME280;25829;50.228;18.936;2023-04-30T13:46:55;98834.22;;;14.48;37.84
40117;BME280;25829;50.228;18.936;2023-04-30T13:49:56;98829.38;;;14.45;38.97
40117;BME280;25829;50.228;18.936;2023-04-30T13:52:57;98824.06;;;14.45;38.16
40117;BME280;25829;50.228;18.936;2023-04-30T13:55:59;98825.47;;;14.48;38.89
40117;BME280;25829;50.228;18.936;2023-04-30T13:59:02;98830.09;;;14.52;38.95
40117;BME280;25829;50.228;18.936;2023-04-30T14:02:03;98838.41;;;14.56;38.61
40117;BME280;25829;50.228;18.936;2023-04-30T14:05:04;98827.13;;;14.60;39.06
40117;BME280;25829;50.228;18.936;2023-04-30T14:08:08;98831.63;;;14.60;38.46
40117;BME280;25829;50.228;18.936;2023-04-30T14:11:14;98839.59;;;14.60;38.87
40117;BME280;25829;50.228;18.936;2023-04-30T14:24:08;98827.25;;;14.66;37.91
40117;BME280;25829;50.228;18.936;2023-04-30T15:40:43;98842.00;;;13.70;36.55
40117;BME280;25829;50.228;18.936;2023-04-30T16:14:54;98836.84;;;13.50;36.13
40117;BME280;25829;50.228;18.936;2023-04-30T16:17:56;98840.91;;;13.52;36.78
40117;BME280;25829;50.228;18.936;2023-04-30T16:20:56;98841.72;;;13.53;36.66
40117;BME280;25829;50.228;18.936;2023-04-30T16:23:58;98839.06;;;13.53;36.77
40117;BME280;25829;50.228;18.936;2023-04-30T16:26:59;98837.22;;;13.53;37.03
40117;BME280;25829;50.228;18.936;2023-04-30T16:30:00;98833.19;;;13.51;37.25
40117;BME280;25829;50.228;18.936;2023-04-30T16:33:01;98829.56;;;13.45;36.69
40117;BME280;25829;50.228;18.936;2023-04-30T16:36:02;98847.59;;;13.36;36.81
40117;BME280;25829;50.228;18.936;2023-04-30T16:39:03;98834.41;;;13.30;36.44
40117;BME280;25829;50.228;18.936;2023-04-30T16:42:05;98836.09;;;13.17;35.27
40117;BME280;25829;50.228;18.936;2023-04-30T16:45:06;98835.97;;;13.06;34.99
40117;BME280;25829;50.228;18.936;2023-04-30T16:48:07;98840.44;;;13.05;36.71
40117;BME280;25829;50.228;18.936;2023-04-30T16:51:08;98840.66;;;13.04;36.56
40117;BME280;25829;50.228;18.936;2023-04-30T16:54:09;98841.31;;;12.99;36.63
40117;BME280;25829;50.228;18.936;2023-04-30T16:57:10;98844.94;;;12.98;37.06
40117;BME280;25829;50.228;18.936;2023-04-30T17:00:11;98848.06;;;12.95;36.85
40117;BME280;25829;50.228;18.936;2023-04-30T17:03:13;98854.19;;;12.89;35.83
40117;BME280;25829;50.228;18.936;2023-04-30T17:06:14;98856.25;;;12.80;35.67
40117;BME280;25829;50.228;18.936;2023-04-30T17:09:33;98865.06;;;12.74;35.31
40117;BME280;25829;50.228;18.936;2023-04-30T17:12:34;98860.22;;;12.64;35.61
40117;BME280;25829;50.228;18.936;2023-04-30T17:15:35;98859.03;;;12.60;36.34
40117;BME280;25829;50.228;18.936;2023-04-30T17:18:36;98868.19;;;12.58;36.66
40117;BME280;25829;50.228;18.936;2023-04-30T17:21:37;98879.84;;;12.50;36.52
40117;BME280;25829;50.228;18.936;2023-04-30T17:24:38;98885.97;;;12.44;36.63
40117;BME280;25829;50.228;18.936;2023-04-30T17:27:39;98878.44;;;12.41;36.31
40117;BME280;25829;50.228;18.936;2023-04-30T17:30:40;98883.91;;;12.39;36.92
40117;BME280;25829;50.228;18.936;2023-04-30T17:33:41;98894.56;;;12.33;36.98
40117;BME280;25829;50.228;18.936;2023-04-30T17:36:42;98888.03;;;12.29;36.75
40117;BME280;25829;50.228;18.936;2023-04-30T17:39:43;98892.13;;;12.24;36.95
40117;BME280;25829;50.228;18.936;2023-04-30T17:42:45;98896.63;;;12.17;36.83
40117;BME280;25829;50.228;18.936;2023-04-30T17:45:46;98898.69;;;12.09;37.35
40117;BME280;25829;50.228;18.936;2023-04-30T17:48:46;98900.53;;;12.02;37.31
40117;BME280;25829;50.228;18.936;2023-04-30T17:51:47;98910.47;;;11.93;37.25
40117;BME280;25829;50.228;18.936;2023-04-30T17:54:48;98908.03;;;11.85;37.20
40117;BME280;25829;50.228;18.936;2023-04-30T17:57:49;98918.19;;;11.74;37.46
40117;BME280;25829;50.228;18.936;2023-04-30T18:00:50;98923.69;;;11.66;37.89
40117;BME280;25829;50.228;18.936;2023-04-30T18:03:52;98927.56;;;11.57;37.84
40117;BME280;25829;50.228;18.936;2023-04-30T18:06:53;98926.91;;;11.48;37.88
40117;BME280;25829;50.228;18.936;2023-04-30T18:09:54;98928.97;;;11.40;38.16
40117;BME280;25829;50.228;18.936;2023-04-30T18:12:59;98928.16;;;11.39;38.12
40117;BME280;25829;50.228;18.936;2023-04-30T18:16:00;98921.59;;;11.28;38.34
40117;BME280;25829;50.228;18.936;2023-04-30T18:19:02;98926.91;;;11.22;38.74
40117;BME280;25829;50.228;18.936;2023-04-30T18:22:03;98927.69;;;11.16;38.97
40117;BME280;25829;50.228;18.936;2023-04-30T18:25:04;98928.47;;;11.10;38.65
40117;BME280;25829;50.228;18.936;2023-04-30T18:28:05;98929.09;;;11.05;38.90
40117;BME280;25829;50.228;18.936;2023-04-30T18:31:10;98933.72;;;10.96;39.13
40117;BME280;25829;50.228;18.936;2023-04-30T18:34:18;98941.22;;;10.93;39.30
40117;BME280;25829;50.228;18.936;2023-04-30T18:37:19;98945.88;;;10.84;39.40
40117;BME280;25829;50.228;18.936;2023-04-30T18:40:24;98952.53;;;10.80;39.76